메인 페이지
METAR-TAF:

METAR-TAF

공항 :

바하왈푸르, 파키스탄

위도: 29-20-53N, 경도: 71-43-04E, 고도: 119m

METAR: 누락

시각: 00:27 (19:27 UTC)

예보

예보는 3 시간 32분 전, 15:55시(UTC)에 발표되었습니다.
예보 대상 시간: 04일 18시부터 05일 12시까지 (UTC)
10kt
시정: 4000m
고도 4000ft 상공 구름 보통
고도 10000ft 상공 구름 보통
연기
확률 30% :
일시적
04일 18시부터 04일 21시까지 (UTC)
20kt
시정: 2000m
고도 3000ft 상공 구름 조금, 적란운.
고도 4000ft 상공 구름 보통
고도 10000ft 상공 구름 많음
뇌우, 비

TAF: OPBW 041555Z 0418/0512 36010KT 4000 FU SCT040 SCT100 TN16/0501Z TX33/0510Z PROB30 TEMPO 0418/0421 36020KT 2000 TSRA FEW030CB SCT040 BKN100

4,000개 이상의 공항 관측 자료 및 예보 (METAR 및 TAF 보고).

지도상에서 검색 가능한 기상관측소가 노란 점과 빨간 점으로 표시되어 있습니다.

기상관측소 명을 보려면 표시 위로 마우스를 이동하세요.

날씨 관측과 예보를 보려면 클릭하세요.

지도 변경 : 확대하려면 엑스 표시가 있는 녹색 버튼, 축소하려면 빼기 표시가 있는 녹색 버튼, 다음 페이지의 지도를 보려면 녹색 화살표를 클릭하세요.


METAR-TAF: